Time;durP1;ratioP1;P1;durP2;ratioP2;P2;SDS_P1;SDS_P2;PMS_P1;PMS_P2;Temp;Humidity;BMP_temperature;BMP_pressure;BME280_temperature;BME280_humidity;BME280_pressure;Samples;Min_cycle;Max_cycle;Signal;HPM_P1;HPM_P2
2022/04/01 00:01:22;;;;;;;18.75;12.63;;;;;;;;;;6312467;22;20450;-83
2022/04/01 00:03:48;;;;;;;18.08;12.02;;;;;;;;;;6312623;22;20074;-83
2022/04/01 00:06:14;;;;;;;18.70;12.13;;;;;;;;;;6311145;22;20059;-82
2022/04/01 00:08:40;;;;;;;18.10;12.10;;;;;;;;;;6285243;22;20313;-83
2022/04/01 00:11:06;;;;;;;18.33;12.65;;;;;;;;;;6284466;22;20008;-82
2022/04/01 00:13:32;;;;;;;16.63;11.75;;;;;;;;;;6312086;22;19995;-83
2022/04/01 00:15:59;;;;;;;18.88;12.35;;;;;;;;;;6284686;22;20042;-83
2022/04/01 00:18:25;;;;;;;19.70;12.15;;;;;;;;;;6311690;22;19996;-83
2022/04/01 00:20:51;;;;;;;19.27;11.88;;;;;;;;;;6311597;22;20003;-82
2022/04/01 00:23:17;;;;;;;17.08;11.63;;;;;;;;;;6312083;22;20003;-82
2022/04/01 00:25:43;;;;;;;18.38;11.85;;;;;;;;;;6311664;22;19999;-83
2022/04/01 00:28:10;;;;;;;16.83;11.60;;;;;;;;;;6284966;22;20065;-82
2022/04/01 00:30:38;;;;;;;18.48;12.23;;;;;;;;;;6312163;22;20030;-82
2022/04/01 00:33:08;;;;;;;17.00;11.00;;;;;;;;;;6312249;22;20006;-81
2022/04/01 00:35:34;;;;;;;19.13;12.02;;;;;;;;;;6312482;22;20079;-81
2022/04/01 00:38:00;;;;;;;17.02;11.52;;;;;;;;;;6313391;22;19995;-82
2022/04/01 00:40:26;;;;;;;18.83;12.75;;;;;;;;;;6312519;22;20007;-82
2022/04/01 00:42:52;;;;;;;16.83;11.23;;;;;;;;;;6285651;22;20380;-81
2022/04/01 00:45:18;;;;;;;18.27;12.48;;;;;;;;;;6285827;22;20058;-83
2022/04/01 00:47:45;;;;;;;17.27;11.57;;;;;;;;;;6284725;22;20006;-82
2022/04/01 00:50:11;;;;;;;17.20;10.93;;;;;;;;;;6312900;22;19996;-81
2022/04/01 00:52:37;;;;;;;17.90;11.80;;;;;;;;;;6317218;22;19995;-80
2022/04/01 00:55:08;;;;;;;17.77;11.68;;;;;;;;;;6325400;22;20006;-79
2022/04/01 00:57:35;;;;;;;16.35;11.88;;;;;;;;;;6317137;22;20003;-80
2022/04/01 01:00:02;;;;;;;23.45;12.20;;;;;;;;;;6314982;22;19999;-82
2022/04/01 01:02:28;;;;;;;17.08;11.18;;;;;;;;;;6314901;22;20007;-81
2022/04/01 01:04:54;;;;;;;16.80;10.73;;;;;;;;;;6314339;22;20021;-81
2022/04/01 01:07:20;;;;;;;17.45;12.13;;;;;;;;;;6286573;22;20033;-80
2022/04/01 01:09:46;;;;;;;19.02;12.50;;;;;;;;;;6286859;22;20003;-81
2022/04/01 01:12:12;;;;;;;17.15;11.35;;;;;;;;;;6287033;22;19999;-82
2022/04/01 01:14:39;;;;;;;16.60;11.43;;;;;;;;;;6287618;22;20003;-81
2022/04/01 01:17:07;;;;;;;17.00;12.27;;;;;;;;;;6314445;22;20003;-81
2022/04/01 01:19:33;;;;;;;19.17;11.77;;;;;;;;;;6314296;22;19995;-81
2022/04/01 01:22:00;;;;;;;16.70;11.85;;;;;;;;;;6314391;22;20055;-82
2022/04/01 01:24:29;;;;;;;17.45;11.48;;;;;;;;;;6286970;22;20003;-81
2022/04/01 01:26:55;;;;;;;18.05;12.02;;;;;;;;;;6286090;22;20003;-80
2022/04/01 01:29:23;;;;;;;15.18;11.10;;;;;;;;;;6314286;22;20045;-81
2022/04/01 01:31:49;;;;;;;18.85;11.80;;;;;;;;;;6285802;22;20500;-81
2022/04/01 01:34:16;;;;;;;17.08;11.90;;;;;;;;;;6314122;22;20091;-82
2022/04/01 01:36:42;;;;;;;19.77;11.75;;;;;;;;;;6313977;22;20052;-82
2022/04/01 01:39:08;;;;;;;17.85;12.38;;;;;;;;;;6313572;22;20006;-81
2022/04/01 01:41:34;;;;;;;15.98;11.23;;;;;;;;;;6313780;22;20335;-81
2022/04/01 01:44:00;;;;;;;17.65;11.23;;;;;;;;;;6313614;22;20003;-82
2022/04/01 01:46:26;;;;;;;17.85;11.63;;;;;;;;;;6285982;22;20022;-80
2022/04/01 01:48:52;;;;;;;16.50;11.18;;;;;;;;;;6313477;22;20007;-80
2022/04/01 01:56:48;;;;;;;18.05;11.77;;;;;;;;;;6313283;22;20037;-82
2022/04/01 01:59:14;;;;;;;18.00;11.40;;;;;;;;;;6286350;22;19999;-81
2022/04/01 02:01:41;;;;;;;16.58;11.07;;;;;;;;;;6313654;22;20027;-82
2022/04/01 02:04:07;;;;;;;17.45;11.05;;;;;;;;;;6284860;22;20432;-81
2022/04/01 02:06:33;;;;;;;16.88;11.25;;;;;;;;;;6313020;22;20081;-81
2022/04/01 02:08:59;;;;;;;17.50;11.70;;;;;;;;;;6313341;22;20013;-81
2022/04/01 02:11:25;;;;;;;16.88;11.15;;;;;;;;;;6312694;22;20047;-80
2022/04/01 02:13:52;;;;;;;16.90;11.18;;;;;;;;;;6314176;22;20010;-81
2022/04/01 02:16:18;;;;;;;17.10;10.93;;;;;;;;;;6285993;22;20261;-81
2022/04/01 02:18:45;;;;;;;18.80;11.32;;;;;;;;;;6313917;22;19999;-80
2022/04/01 02:21:11;;;;;;;17.45;10.88;;;;;;;;;;6312417;22;19998;-82
2022/04/01 02:23:41;;;;;;;19.30;12.07;;;;;;;;;;6312827;22;20037;-81
2022/04/01 02:26:08;;;;;;;17.58;11.07;;;;;;;;;;6313079;22;19999;-81
2022/04/01 02:28:37;;;;;;;16.30;10.93;;;;;;;;;;6286261;22;20053;-82
2022/04/01 02:31:08;;;;;;;15.52;11.07;;;;;;;;;;6286825;22;20343;-82
2022/04/01 02:33:35;;;;;;;16.63;10.55;;;;;;;;;;6313610;22;20002;-81
2022/04/01 02:36:02;;;;;;;18.08;11.35;;;;;;;;;;6313831;22;20003;-81
2022/04/01 02:38:29;;;;;;;18.38;10.65;;;;;;;;;;6314250;22;20009;-81
2022/04/01 02:40:55;;;;;;;16.55;11.52;;;;;;;;;;6286117;22;19999;-82
2022/04/01 02:43:22;;;;;;;17.58;11.43;;;;;;;;;;6313434;22;20011;-81
2022/04/01 02:45:48;;;;;;;17.42;11.50;;;;;;;;;;6314400;22;20006;-81
2022/04/01 02:48:15;;;;;;;18.00;11.10;;;;;;;;;;6286814;22;20003;-81
2022/04/01 02:50:42;;;;;;;17.98;10.88;;;;;;;;;;6285298;22;20343;-81
2022/04/01 02:53:08;;;;;;;17.42;11.75;;;;;;;;;;6286125;22;20059;-81
2022/04/01 02:55:34;;;;;;;17.63;11.23;;;;;;;;;;6285962;22;20094;-81
2022/04/01 02:58:00;;;;;;;15.70;10.70;;;;;;;;;;6285682;22;20335;-81
2022/04/01 03:00:27;;;;;;;17.38;11.10;;;;;;;;;;6313776;22;20078;-80
2022/04/01 03:02:53;;;;;;;17.52;10.88;;;;;;;;;;6285836;22;20015;-81
2022/04/01 03:05:19;;;;;;;17.58;11.07;;;;;;;;;;6313399;22;19999;-80
2022/04/01 03:07:45;;;;;;;17.15;11.15;;;;;;;;;;6285243;22;20030;-80
2022/04/01 03:10:12;;;;;;;18.17;11.60;;;;;;;;;;6313167;22;20007;-81
2022/04/01 03:12:38;;;;;;;19.17;12.23;;;;;;;;;;6312900;22;20033;-81
2022/04/01 03:15:04;;;;;;;18.05;11.80;;;;;;;;;;6285899;22;20000;-81
2022/04/01 03:17:31;;;;;;;17.02;10.93;;;;;;;;;;6313797;22;20004;-80
2022/04/01 03:19:59;;;;;;;17.77;11.05;;;;;;;;;;6312995;22;20081;-80
2022/04/01 03:22:25;;;;;;;17.00;11.10;;;;;;;;;;6313607;22;20006;-81
2022/04/01 03:24:52;;;;;;;19.45;11.65;;;;;;;;;;6313032;22;20548;-81
2022/04/01 03:27:18;;;;;;;16.83;9.88;;;;;;;;;;6313943;22;20004;-82
2022/04/01 03:29:44;;;;;;;15.57;10.68;;;;;;;;;;6314451;22;20497;-82
2022/04/01 03:32:10;;;;;;;15.93;10.57;;;;;;;;;;6312771;22;20003;-81
2022/04/01 03:34:37;;;;;;;15.00;10.32;;;;;;;;;;6311842;22;20006;-81
2022/04/01 03:37:05;;;;;;;15.30;9.80;;;;;;;;;;6313335;22;20059;-81
2022/04/01 03:39:32;;;;;;;15.55;10.27;;;;;;;;;;6313716;22;20002;-81
2022/04/01 03:41:58;;;;;;;16.30;10.48;;;;;;;;;;6285799;22;20031;-80
2022/04/01 03:44:24;;;;;;;16.25;10.65;;;;;;;;;;6313050;22;20027;-81
2022/04/01 03:46:53;;;;;;;17.60;10.68;;;;;;;;;;6313896;22;20003;-82
2022/04/01 03:49:23;;;;;;;16.92;9.80;;;;;;;;;;6314616;22;20000;-81
2022/04/01 03:51:50;;;;;;;16.60;10.20;;;;;;;;;;6313804;22;19999;-81
2022/04/01 03:54:17;;;;;;;16.58;10.10;;;;;;;;;;6285954;22;20473;-81
2022/04/01 03:56:44;;;;;;;15.23;9.35;;;;;;;;;;6285192;22;20504;-82
2022/04/01 03:59:14;;;;;;;16.67;10.40;;;;;;;;;;6313101;22;19995;-81
2022/04/01 04:01:40;;;;;;;15.20;9.50;;;;;;;;;;6311772;22;20011;-82
2022/04/01 04:04:09;;;;;;;14.43;9.80;;;;;;;;;;6312948;22;20410;-81
2022/04/01 04:06:37;;;;;;;15.05;9.77;;;;;;;;;;6312749;22;20368;-82
2022/04/01 04:09:04;;;;;;;14.80;9.40;;;;;;;;;;6311551;22;20011;-82
2022/04/01 04:11:31;;;;;;;16.65;9.68;;;;;;;;;;6312229;22;20006;-82
2022/04/01 04:13:58;;;;;;;14.85;10.02;;;;;;;;;;6313486;22;20026;-81
2022/04/01 04:16:34;;;;;;;13.93;8.80;;;;;;;;;;6313721;22;20010;-83
2022/04/01 04:19:07;;;;;;;14.07;9.43;;;;;;;;;;6312335;22;20373;-81
2022/04/01 04:21:57;;;;;;;14.10;9.45;;;;;;;;;;6284978;22;20011;-82
2022/04/01 04:24:31;;;;;;;15.07;9.20;;;;;;;;;;6293122;22;20055;-82
2022/04/01 04:27:11;;;;;;;15.02;8.65;;;;;;;;;;6311877;22;20006;-82
2022/04/01 04:29:42;;;;;;;13.77;8.80;;;;;;;;;;6311599;22;19997;-81
2022/04/01 04:32:12;;;;;;;14.07;8.77;;;;;;;;;;6311621;22;20079;-81
2022/04/01 04:34:39;;;;;;;15.80;9.57;;;;;;;;;;6310949;22;20044;-82
2022/04/01 04:37:10;;;;;;;14.70;9.13;;;;;;;;;;6282801;22;20049;-81
2022/04/01 04:39:38;;;;;;;15.73;9.65;;;;;;;;;;6282708;22;19999;-82
2022/04/01 04:42:05;;;;;;;12.70;8.77;;;;;;;;;;6283199;22;20078;-82
2022/04/01 04:44:31;;;;;;;14.93;9.63;;;;;;;;;;6311574;22;20002;-81
2022/04/01 04:46:58;;;;;;;12.82;8.13;;;;;;;;;;6311769;22;20004;-82
2022/04/01 04:49:27;;;;;;;12.70;8.80;;;;;;;;;;6311105;22;20045;-82
2022/04/01 04:51:54;;;;;;;13.85;8.48;;;;;;;;;;6311854;22;20038;-81
2022/04/01 04:54:21;;;;;;;14.05;8.85;;;;;;;;;;6283860;22;20060;-81
2022/04/01 04:56:49;;;;;;;14.60;9.20;;;;;;;;;;6313980;22;19999;-82
2022/04/01 04:59:19;;;;;;;14.25;8.93;;;;;;;;;;6313795;22;19999;-82
2022/04/01 05:01:45;;;;;;;14.18;8.57;;;;;;;;;;6284384;22;20012;-81
2022/04/01 05:04:30;;;;;;;13.82;8.55;;;;;;;;;;6312656;22;20029;-83
2022/04/01 05:07:17;;;;;;;12.98;8.25;;;;;;;;;;6286032;22;20007;-82
2022/04/01 05:09:46;;;;;;;13.18;8.80;;;;;;;;;;6312582;22;20078;-81
2022/04/01 05:12:16;;;;;;;12.98;8.10;;;;;;;;;;6286098;22;20466;-82
2022/04/01 05:14:42;;;;;;;13.90;8.82;;;;;;;;;;6286778;22;20003;-82
2022/04/01 05:17:15;;;;;;;13.57;8.43;;;;;;;;;;6285645;22;20007;-81
2022/04/01 05:19:41;;;;;;;12.20;7.55;;;;;;;;;;6313356;22;20439;-80
2022/04/01 05:22:07;;;;;;;11.60;7.45;;;;;;;;;;6312920;22;20002;-81
2022/04/01 05:24:37;;;;;;;13.05;8.30;;;;;;;;;;6313247;22;20002;-81
2022/04/01 05:27:05;;;;;;;13.32;8.13;;;;;;;;;;6313716;22;20011;-81
2022/04/01 05:29:35;;;;;;;12.15;8.00;;;;;;;;;;6313673;22;20003;-80
2022/04/01 05:32:03;;;;;;;11.70;8.18;;;;;;;;;;6284583;22;20035;-81
2022/04/01 05:34:44;;;;;;;13.05;8.70;;;;;;;;;;6312633;22;19999;-80
2022/04/01 05:37:11;;;;;;;13.27;8.35;;;;;;;;;;6285118;22;20423;-82
2022/04/01 05:39:38;;;;;;;12.57;8.15;;;;;;;;;;6312636;22;20007;-81
2022/04/01 05:42:07;;;;;;;12.10;8.02;;;;;;;;;;6286350;22;19999;-79
2022/04/01 05:44:33;;;;;;;12.68;8.55;;;;;;;;;;6315059;22;19995;-81
2022/04/01 05:47:00;;;;;;;11.70;8.00;;;;;;;;;;6313527;22;20256;-81
2022/04/01 05:49:26;;;;;;;11.75;7.40;;;;;;;;;;6314726;22;20003;-84
2022/04/01 05:51:53;;;;;;;13.15;8.70;;;;;;;;;;6314428;22;20009;-81
2022/04/01 05:54:19;;;;;;;12.85;7.80;;;;;;;;;;6313874;22;20102;-81
2022/04/01 05:56:46;;;;;;;13.93;8.52;;;;;;;;;;6316455;22;20005;-79
2022/04/01 05:59:13;;;;;;;12.65;8.40;;;;;;;;;;6314670;22;19995;-81
2022/04/01 06:01:43;;;;;;;13.20;8.57;;;;;;;;;;6313715;22;20010;-81
2022/04/01 06:04:09;;;;;;;14.30;9.00;;;;;;;;;;6314258;22;20343;-81
2022/04/01 06:06:42;;;;;;;11.93;8.43;;;;;;;;;;6313896;22;19999;-81
2022/04/01 06:09:27;;;;;;;12.52;8.20;;;;;;;;;;6315425;22;19999;-81
2022/04/01 06:11:58;;;;;;;14.20;8.38;;;;;;;;;;6291159;22;20423;-81
2022/04/01 06:14:43;;;;;;;13.50;7.68;;;;;;;;;;6329588;22;19987;-80
2022/04/01 06:17:18;;;;;;;11.98;7.53;;;;;;;;;;6305002;22;20003;-80
2022/04/01 06:19:46;;;;;;;13.32;8.43;;;;;;;;;;6331103;22;20002;-80
2022/04/01 06:22:16;;;;;;;12.10;7.78;;;;;;;;;;6304229;22;20275;-80
2022/04/01 06:24:45;;;;;;;11.23;7.70;;;;;;;;;;6295504;22;20011;-81
2022/04/01 06:27:17;;;;;;;11.45;7.80;;;;;;;;;;6314759;22;19995;-81
2022/04/01 06:29:44;;;;;;;11.13;7.03;;;;;;;;;;6316140;22;19991;-81
2022/04/01 06:32:27;;;;;;;10.95;7.90;;;;;;;;;;6289992;22;20237;-81
2022/04/01 06:34:53;;;;;;;;;;;;;;;;;;6316258;22;20010;-81
2022/04/01 06:37:25;;;;;;;14.35;9.45;;;;;;;;;;6314164;22;19902;-81
2022/04/01 06:40:03;;;;;;;11.30;7.60;;;;;;;;;;6286978;22;20002;-81
2022/04/01 06:42:31;;;;;;;11.82;8.18;;;;;;;;;;6286893;22;20498;-81
2022/04/01 06:44:57;;;;;;;11.80;7.40;;;;;;;;;;6315231;22;20006;-81
2022/04/01 06:47:23;;;;;;;11.45;7.60;;;;;;;;;;6318245;22;20027;-81
2022/04/01 06:49:49;;;;;;;10.65;7.32;;;;;;;;;;6292711;22;20009;-80
2022/04/01 06:52:16;;;;;;;10.52;7.15;;;;;;;;;;6323268;22;20000;-81
2022/04/01 06:54:42;;;;;;;11.63;6.97;;;;;;;;;;6325535;22;19999;-83
2022/04/01 06:57:08;;;;;;;11.93;8.15;;;;;;;;;;6297313;22;20514;-80
2022/04/01 06:59:34;;;;;;;11.02;7.35;;;;;;;;;;6319576;22;20037;-80
2022/04/01 07:02:01;;;;;;;11.48;7.45;;;;;;;;;;6314281;22;20061;-83
2022/04/01 07:04:27;;;;;;;10.25;7.10;;;;;;;;;;6314608;22;20002;-81
2022/04/01 07:06:55;;;;;;;10.52;7.25;;;;;;;;;;6314577;22;20029;-81
2022/04/01 07:09:22;;;;;;;10.70;7.75;;;;;;;;;;6286787;22;20011;-82
2022/04/01 07:11:48;;;;;;;10.60;7.10;;;;;;;;;;6285575;22;20003;-82
2022/04/01 07:14:14;;;;;;;10.43;7.63;;;;;;;;;;6313882;22;20126;-81
2022/04/01 07:16:40;;;;;;;10.30;6.80;;;;;;;;;;6285931;22;20231;-82
2022/04/01 07:19:07;;;;;;;11.05;7.22;;;;;;;;;;6312801;22;20022;-83
2022/04/01 07:21:33;;;;;;;10.63;6.50;;;;;;;;;;6287156;22;20000;-83
2022/04/01 07:24:01;;;;;;;11.20;7.28;;;;;;;;;;6313594;22;20011;-83
2022/04/01 07:26:27;;;;;;;9.93;7.43;;;;;;;;;;6313528;22;20414;-82
2022/04/01 07:28:54;;;;;;;9.63;7.05;;;;;;;;;;6313011;22;20003;-81
2022/04/01 07:34:06;;;;;;;9.90;6.82;;;;;;;;;;6313852;22;20466;-82
2022/04/01 07:36:32;;;;;;;11.90;7.95;;;;;;;;;;6285791;22;20453;-81
2022/04/01 07:38:58;;;;;;;11.10;7.25;;;;;;;;;;6313554;22;20004;-82
2022/04/01 07:41:24;;;;;;;9.85;6.82;;;;;;;;;;6313654;22;19999;-82
2022/04/01 07:43:51;;;;;;;10.40;6.75;;;;;;;;;;6288094;22;19999;-80
2022/04/01 07:46:17;;;;;;;9.27;6.18;;;;;;;;;;6313763;22;20029;-81
2022/04/01 07:48:43;;;;;;;9.57;6.72;;;;;;;;;;6312726;22;20003;-81
2022/04/01 07:51:09;;;;;;;10.38;7.10;;;;;;;;;;6312998;22;20010;-82
2022/04/01 07:53:35;;;;;;;10.52;7.35;;;;;;;;;;6312261;22;20011;-81
2022/04/01 07:56:01;;;;;;;9.82;6.90;;;;;;;;;;6313130;22;20006;-82
2022/04/01 07:58:27;;;;;;;9.73;6.75;;;;;;;;;;6312610;22;19999;-82
2022/04/01 08:00:53;;;;;;;10.35;6.63;;;;;;;;;;6284883;22;20553;-83
2022/04/01 08:03:19;;;;;;;11.00;6.88;;;;;;;;;;6313227;22;20050;-81
2022/04/01 08:05:45;;;;;;;9.75;6.57;;;;;;;;;;6313744;22;20003;-84
2022/04/01 08:08:11;;;;;;;9.98;6.13;;;;;;;;;;6316670;22;20055;-80
2022/04/01 08:10:37;;;;;;;10.57;6.97;;;;;;;;;;6316893;22;20046;-82
2022/04/01 08:13:04;;;;;;;9.93;6.78;;;;;;;;;;6286688;22;20022;-82
2022/04/01 08:15:30;;;;;;;9.63;6.47;;;;;;;;;;6313519;22;19999;-81
2022/04/01 08:17:56;;;;;;;10.25;7.07;;;;;;;;;;6312979;22;19996;-82
2022/04/01 08:20:23;;;;;;;11.23;6.82;;;;;;;;;;6312503;22;20041;-81
2022/04/01 08:22:49;;;;;;;9.70;6.45;;;;;;;;;;6313792;22;19995;-81
2022/04/01 08:25:15;;;;;;;9.23;6.82;;;;;;;;;;6313288;22;19995;-82
2022/04/01 08:27:42;;;;;;;9.90;6.88;;;;;;;;;;6313261;22;20050;-82
2022/04/01 08:30:08;;;;;;;9.15;6.53;;;;;;;;;;6314139;22;20033;-83
2022/04/01 08:32:36;;;;;;;9.70;6.78;;;;;;;;;;6313662;22;20052;-82
2022/04/01 08:35:02;;;;;;;10.27;7.78;;;;;;;;;;6313248;22;20007;-83
2022/04/01 08:37:28;;;;;;;10.90;6.70;;;;;;;;;;6313138;22;20068;-83
2022/04/01 08:39:54;;;;;;;9.60;6.80;;;;;;;;;;6313187;22;20443;-80
2022/04/01 08:42:21;;;;;;;9.48;6.97;;;;;;;;;;6313608;22;20005;-81
2022/04/01 08:44:47;;;;;;;9.27;6.68;;;;;;;;;;6285407;22;20094;-82
2022/04/01 08:47:13;;;;;;;9.82;7.13;;;;;;;;;;6312446;22;20009;-82
2022/04/01 08:49:39;;;;;;;9.93;6.13;;;;;;;;;;6284611;22;19999;-82
2022/04/01 08:52:05;;;;;;;9.48;6.53;;;;;;;;;;6313410;22;20009;-82
2022/04/01 08:54:33;;;;;;;9.77;7.10;;;;;;;;;;6312694;22;20018;-82
2022/04/01 08:56:59;;;;;;;10.07;6.88;;;;;;;;;;6313582;22;20025;-82
2022/04/01 08:59:28;;;;;;;9.73;6.57;;;;;;;;;;6312792;22;19999;-80
2022/04/01 09:02:02;;;;;;;10.65;6.88;;;;;;;;;;6284738;22;20019;-82
2022/04/01 09:04:28;;;;;;;9.02;6.72;;;;;;;;;;6312584;22;20021;-82
2022/04/01 09:06:54;;;;;;;9.20;7.13;;;;;;;;;;6285428;22;20003;-83
2022/04/01 09:09:24;;;;;;;10.60;7.25;;;;;;;;;;6312653;22;20017;-80
2022/04/01 09:12:11;;;;;;;9.57;6.78;;;;;;;;;;6312821;22;20003;-82
2022/04/01 09:14:38;;;;;;;10.18;6.47;;;;;;;;;;6313223;22;20382;-82
2022/04/01 09:17:05;;;;;;;10.05;7.28;;;;;;;;;;6285725;22;20117;-80
2022/04/01 09:19:32;;;;;;;9.25;7.13;;;;;;;;;;6314169;22;19996;-83
2022/04/01 09:22:14;;;;;;;10.68;7.97;;;;;;;;;;6313423;22;20053;-81
2022/04/01 09:24:52;;;;;;;10.35;7.03;;;;;;;;;;6285747;22;20003;-82
2022/04/01 09:27:18;;;;;;;9.57;6.72;;;;;;;;;;6313197;22;19995;-80
2022/04/01 09:29:44;;;;;;;10.25;7.50;;;;;;;;;;6314224;22;20037;-81
2022/04/01 09:32:09;;;;;;;10.30;7.22;;;;;;;;;;6286979;22;20036;-82
2022/04/01 09:34:38;;;;;;;11.73;7.25;;;;;;;;;;6313364;22;20010;-80
2022/04/01 09:37:05;;;;;;;9.70;7.32;;;;;;;;;;6313574;22;20010;-81
2022/04/01 09:39:31;;;;;;;9.15;6.80;;;;;;;;;;6312676;22;19995;-82
2022/04/01 09:41:58;;;;;;;9.40;6.63;;;;;;;;;;6286425;22;20332;-82
2022/04/01 09:44:29;;;;;;;9.90;7.60;;;;;;;;;;6288916;22;19996;-82
2022/04/01 09:46:56;;;;;;;9.30;6.65;;;;;;;;;;6317758;22;20431;-81
2022/04/01 09:49:36;;;;;;;10.35;7.72;;;;;;;;;;6317056;22;20236;-82
2022/04/01 09:52:07;;;;;;;8.73;6.85;;;;;;;;;;6288053;22;20003;-82
2022/04/01 09:54:33;;;;;;;9.48;7.32;;;;;;;;;;6287353;22;20014;-82
2022/04/01 09:56:59;;;;;;;9.18;6.75;;;;;;;;;;6286859;22;20007;-82
2022/04/01 09:59:31;;;;;;;9.75;7.10;;;;;;;;;;6314359;22;20021;-82
2022/04/01 10:01:58;;;;;;;9.85;7.28;;;;;;;;;;6314028;22;20440;-81
2022/04/01 10:04:24;;;;;;;11.95;8.50;;;;;;;;;;6312974;22;20010;-82
2022/04/01 10:06:50;;;;;;;11.25;7.28;;;;;;;;;;6314278;22;20436;-81
2022/04/01 10:09:17;;;;;;;9.35;6.88;;;;;;;;;;6314627;22;20048;-83
2022/04/01 10:11:43;;;;;;;9.57;7.03;;;;;;;;;;6287554;22;20042;-80
2022/04/01 10:14:13;;;;;;;9.50;6.45;;;;;;;;;;6313815;22;19995;-83
2022/04/01 10:16:42;;;;;;;10.38;7.22;;;;;;;;;;6286596;22;20010;-81
2022/04/01 10:19:12;;;;;;;10.30;7.22;;;;;;;;;;6314454;22;19996;-81
2022/04/01 10:21:43;;;;;;;10.20;7.78;;;;;;;;;;6313641;22;20022;-80
2022/04/01 10:24:18;;;;;;;9.93;7.15;;;;;;;;;;6314526;22;20078;-81
2022/04/01 10:27:02;;;;;;;9.98;6.80;;;;;;;;;;6314929;22;20407;-81
2022/04/01 10:29:28;;;;;;;8.63;6.50;;;;;;;;;;6313809;22;20018;-81
2022/04/01 10:31:55;;;;;;;9.65;6.95;;;;;;;;;;6313313;22;20003;-82
2022/04/01 10:34:25;;;;;;;10.63;7.35;;;;;;;;;;6312398;22;20003;-81
2022/04/01 10:37:01;;;;;;;9.95;7.25;;;;;;;;;;6313605;22;19999;-80
2022/04/01 10:39:31;;;;;;;9.52;6.43;;;;;;;;;;6313371;22;19995;-83
2022/04/01 10:42:11;;;;;;;10.13;7.45;;;;;;;;;;6285322;22;19999;-80
2022/04/01 10:44:51;;;;;;;10.65;7.25;;;;;;;;;;6313508;22;20055;-84
2022/04/01 10:47:18;;;;;;;9.88;7.15;;;;;;;;;;6313863;22;20695;-82
2022/04/01 10:52:30;;;;;;;9.10;6.85;;;;;;;;;;6313104;22;20018;-79
2022/04/01 10:55:12;;;;;;;10.35;6.90;;;;;;;;;;6285155;22;20015;-83
2022/04/01 10:57:40;;;;;;;10.48;7.13;;;;;;;;;;6312045;22;20318;-82
2022/04/01 11:00:08;;;;;;;10.88;7.57;;;;;;;;;;6286551;22;19999;-82
2022/04/01 11:02:34;;;;;;;8.98;6.63;;;;;;;;;;6314714;22;20029;-82
2022/04/01 11:05:00;;;;;;;9.82;7.18;;;;;;;;;;6315349;22;20005;-82
2022/04/01 11:07:27;;;;;;;10.60;7.25;;;;;;;;;;6315594;22;20056;-81
2022/04/01 11:09:56;;;;;;;10.75;6.80;;;;;;;;;;6287292;22;20003;-82
2022/04/01 11:12:32;;;;;;;9.45;6.50;;;;;;;;;;6286330;22;20014;-82
2022/04/01 11:14:59;;;;;;;9.55;6.97;;;;;;;;;;6314629;22;20343;-82
2022/04/01 11:17:29;;;;;;;11.70;7.47;;;;;;;;;;6286022;22;20339;-81
2022/04/01 11:20:07;;;;;;;9.52;6.68;;;;;;;;;;6313967;22;20504;-81
2022/04/01 11:22:33;;;;;;;11.45;7.90;;;;;;;;;;6316592;22;20069;-81
2022/04/01 11:24:59;;;;;;;11.05;7.63;;;;;;;;;;6288816;22;20006;-81
2022/04/01 11:27:26;;;;;;;10.77;7.95;;;;;;;;;;6313589;22;20110;-82
2022/04/01 11:30:08;;;;;;;10.20;7.57;;;;;;;;;;6285760;22;20213;-79
2022/04/01 11:32:38;;;;;;;10.43;7.45;;;;;;;;;;6312811;22;20305;-80
2022/04/01 11:35:05;;;;;;;9.52;6.70;;;;;;;;;;6313046;22;20128;-80
2022/04/01 11:37:39;;;;;;;10.43;7.18;;;;;;;;;;6312488;22;20000;-80
2022/04/01 11:40:08;;;;;;;12.52;7.50;;;;;;;;;;6312204;22;19995;-80
2022/04/01 11:42:34;;;;;;;9.25;7.00;;;;;;;;;;6312544;22;20003;-80
2022/04/01 11:45:00;;;;;;;9.90;7.20;;;;;;;;;;6312462;22;20006;-80
2022/04/01 11:47:34;;;;;;;10.75;7.10;;;;;;;;;;6312843;22;20010;-80
2022/04/01 11:50:07;;;;;;;11.13;7.15;;;;;;;;;;6311712;22;19999;-82
2022/04/01 11:52:38;;;;;;;10.05;7.00;;;;;;;;;;6311446;22;20391;-82
2022/04/01 11:55:10;;;;;;;11.15;7.53;;;;;;;;;;6311622;22;20006;-80
2022/04/01 11:57:37;;;;;;;11.75;6.97;;;;;;;;;;6283619;22;19999;-81
2022/04/01 12:00:09;;;;;;;9.38;7.22;;;;;;;;;;6311330;22;19999;-81
2022/04/01 12:02:36;;;;;;;9.25;6.43;;;;;;;;;;6312543;22;20167;-83
2022/04/01 12:05:02;;;;;;;9.00;6.15;;;;;;;;;;6313515;22;20055;-81
2022/04/01 12:10:19;;;;;;;10.05;6.32;;;;;;;;;;6311833;22;20018;-80
2022/04/01 12:12:54;;;;;;;8.45;5.78;;;;;;;;;;6285549;22;20093;-80
2022/04/01 12:15:30;;;;;;;9.10;6.20;;;;;;;;;;6312188;22;20088;-80
2022/04/01 12:17:56;;;;;;;8.73;5.90;;;;;;;;;;6312151;22;20007;-80
2022/04/01 12:20:22;;;;;;;9.13;6.32;;;;;;;;;;6284477;22;20008;-81
2022/04/01 12:22:51;;;;;;;9.35;6.43;;;;;;;;;;6310473;22;20003;-81
2022/04/01 12:25:19;;;;;;;8.77;6.10;;;;;;;;;;6312713;22;19999;-81
2022/04/01 12:27:58;;;;;;;7.97;5.20;;;;;;;;;;6312161;22;20311;-81
2022/04/01 12:30:44;;;;;;;9.60;6.07;;;;;;;;;;6283194;22;20009;-81
2022/04/01 12:33:12;;;;;;;9.50;5.90;;;;;;;;;;6284249;22;20089;-81
2022/04/01 12:35:49;;;;;;;9.50;5.85;;;;;;;;;;6311075;22;20005;-81
2022/04/01 12:38:15;;;;;;;8.75;6.05;;;;;;;;;;6312178;22;20599;-79
2022/04/01 12:40:47;;;;;;;9.48;6.30;;;;;;;;;;6312790;22;19995;-79
2022/04/01 12:43:29;;;;;;;9.87;6.23;;;;;;;;;;6285919;22;20023;-81
2022/04/01 12:46:06;;;;;;;9.45;6.60;;;;;;;;;;6286059;22;20233;-79
2022/04/01 12:48:52;;;;;;;8.18;5.45;;;;;;;;;;6313361;22;20003;-80
2022/04/01 12:51:19;;;;;;;8.70;6.05;;;;;;;;;;6284044;22;20094;-80
2022/04/01 12:54:12;;;;;;;9.10;6.47;;;;;;;;;;6312154;22;20002;-79
2022/04/01 12:56:49;;;;;;;9.38;5.90;;;;;;;;;;6307613;22;20003;-80
2022/04/01 12:59:16;;;;;;;9.02;5.85;;;;;;;;;;6287452;22;20030;-81
2022/04/01 13:01:43;;;;;;;9.50;6.55;;;;;;;;;;6314520;22;20043;-81
2022/04/01 13:04:16;;;;;;;9.15;6.28;;;;;;;;;;6286331;22;20026;-80
2022/04/01 13:06:42;;;;;;;9.23;6.63;;;;;;;;;;6313137;22;20117;-81
2022/04/01 13:09:10;;;;;;;10.52;6.35;;;;;;;;;;6312197;22;20003;-81
2022/04/01 13:11:46;;;;;;;9.23;5.70;;;;;;;;;;6312086;22;20070;-81
2022/04/01 13:14:20;;;;;;;9.20;6.70;;;;;;;;;;6311808;22;20002;-81
2022/04/01 13:16:46;;;;;;;10.07;6.47;;;;;;;;;;6284449;22;20423;-81
2022/04/01 13:19:27;;;;;;;8.52;5.88;;;;;;;;;;6284443;22;20004;-81
2022/04/01 13:21:58;;;;;;;8.43;5.80;;;;;;;;;;6284079;22;19999;-80
2022/04/01 13:24:26;;;;;;;8.75;6.40;;;;;;;;;;6311325;22;20018;-81
2022/04/01 13:26:52;;;;;;;9.63;5.78;;;;;;;;;;6310770;22;20078;-80
2022/04/01 13:29:18;;;;;;;8.55;6.38;;;;;;;;;;6310993;22;19999;-80
2022/04/01 13:31:45;;;;;;;9.32;6.00;;;;;;;;;;6308687;22;20035;-80
2022/04/01 13:34:11;;;;;;;9.27;6.57;;;;;;;;;;6312685;22;20432;-81
2022/04/01 13:36:38;;;;;;;10.52;6.68;;;;;;;;;;6292563;22;20091;-80
2022/04/01 13:39:05;;;;;;;10.70;6.30;;;;;;;;;;6292057;22;20004;-81
2022/04/01 13:41:31;;;;;;;9.07;6.40;;;;;;;;;;6321669;22;19999;-79
2022/04/01 13:43:58;;;;;;;9.82;6.28;;;;;;;;;;6318669;22;20021;-80
2022/04/01 13:46:24;;;;;;;10.38;7.18;;;;;;;;;;6313549;22;20006;-81
2022/04/01 13:48:53;;;;;;;9.18;6.05;;;;;;;;;;6310680;22;20035;-81
2022/04/01 13:51:19;;;;;;;10.23;6.88;;;;;;;;;;6311219;22;20137;-80
2022/04/01 13:53:45;;;;;;;9.43;6.82;;;;;;;;;;6311875;22;20011;-80
2022/04/01 13:56:11;;;;;;;9.68;6.53;;;;;;;;;;6314493;22;20003;-81
2022/04/01 13:58:37;;;;;;;8.95;6.32;;;;;;;;;;6312317;22;19995;-80
2022/04/01 14:01:04;;;;;;;9.48;6.57;;;;;;;;;;6280763;22;20431;-81
2022/04/01 14:03:30;;;;;;;8.98;6.30;;;;;;;;;;6280993;22;19999;-81
2022/04/01 14:05:56;;;;;;;8.85;5.95;;;;;;;;;;6283250;22;20061;-82
2022/04/01 14:08:22;;;;;;;10.70;6.93;;;;;;;;;;6282191;22;20007;-81
2022/04/01 14:10:48;;;;;;;11.07;6.53;;;;;;;;;;6292604;22;20043;-81
2022/04/01 14:13:14;;;;;;;9.63;6.80;;;;;;;;;;6290883;22;19995;-81
2022/04/01 14:15:40;;;;;;;9.55;6.38;;;;;;;;;;6286697;22;20074;-81
2022/04/01 14:18:06;;;;;;;9.80;6.38;;;;;;;;;;6286661;22;20055;-81
2022/04/01 14:20:32;;;;;;;8.23;6.25;;;;;;;;;;6285097;22;20029;-81
2022/04/01 14:22:59;;;;;;;10.07;6.30;;;;;;;;;;6284423;22;19996;-81
2022/04/01 14:25:25;;;;;;;9.40;6.90;;;;;;;;;;6283616;22;20022;-81
2022/04/01 14:27:51;;;;;;;10.18;6.60;;;;;;;;;;6283501;22;20381;-81
2022/04/01 14:32:44;;;;;;;9.35;6.65;;;;;;;;;;6285244;22;20008;-81
2022/04/01 14:35:10;;;;;;;8.60;6.18;;;;;;;;;;6286079;22;20091;-82
2022/04/01 14:37:36;;;;;;;8.32;6.00;;;;;;;;;;6284978;22;20003;-82
2022/04/01 14:40:03;;;;;;;9.25;6.43;;;;;;;;;;6281932;22;20053;-82
2022/04/01 14:42:29;;;;;;;9.35;6.53;;;;;;;;;;6282047;22;20026;-83
2022/04/01 14:44:56;;;;;;;9.18;5.90;;;;;;;;;;6281400;22;20203;-82
2022/04/01 14:47:24;;;;;;;9.80;6.28;;;;;;;;;;6281441;22;20031;-80
2022/04/01 14:49:50;;;;;;;9.05;6.32;;;;;;;;;;6279607;22;20007;-80
2022/04/01 14:52:16;;;;;;;9.50;6.63;;;;;;;;;;6280987;22;20035;-82
2022/04/01 14:54:42;;;;;;;10.60;6.68;;;;;;;;;;6283895;22;20003;-81